Time;durP1;ratioP1;P1;durP2;ratioP2;P2;SDS_P1;SDS_P2;PMS_P1;PMS_P2;Temp;Humidity;BMP_temperature;BMP_pressure;BME280_temperature;BME280_humidity;BME280_pressure;Samples;Min_cycle;Max_cycle;Signal;HPM_P1;HPM_P2
2021/04/24 00:04:27;;;;;;;7.53;2.73;;;8.70;91.00;;;;;;20912002;28;20108;-75
2021/04/24 00:14:28;;;;;;;9.50;3.27;;;8.40;92.10;;;;;;20910938;28;20064;-74
2021/04/24 00:24:29;;;;;;;7.10;3.47;;;8.20;92.80;;;;;;20910488;28;20047;-75
2021/04/24 00:34:30;;;;;;;12.50;2.90;;;8.30;92.80;;;;;;20909572;28;20060;-74
2021/04/24 00:44:31;;;;;;;5.53;2.90;;;8.20;93.00;;;;;;20907824;28;20043;-75
2021/04/24 00:54:32;;;;;;;15.97;3.10;;;7.90;94.20;;;;;;20908364;28;20021;-75
2021/04/24 01:04:34;;;;;;;7.53;2.83;;;7.50;95.70;;;;;;20908051;28;20114;-74
2021/04/24 01:14:35;;;;;;;12.95;3.55;;;7.40;96.30;;;;;;20907254;28;20029;-75
2021/04/24 01:24:37;;;;;;;7.43;3.23;;;7.50;96.50;;;;;;20914429;28;20029;-74
2021/04/24 01:34:37;;;;;;;7.32;3.13;;;7.30;97.50;;;;;;20923153;28;20549;-74
2021/04/24 01:44:38;;;;;;;6.27;3.27;;;7.10;99.40;;;;;;20921545;28;20045;-74
2021/04/24 01:54:39;;;;;;;14.20;3.47;;;7.00;99.90;;;;;;20922371;28;20434;-74
2021/04/24 02:04:40;;;;;;;9.03;3.23;;;6.90;99.90;;;;;;20921449;28;20055;-74
2021/04/24 02:14:50;;;;;;;7.53;2.93;;;6.80;99.90;;;;;;20919224;28;20502;-74
2021/04/24 02:24:57;;;;;;;7.85;3.30;;;6.60;99.90;;;;;;20918591;28;20400;-74
2021/04/24 02:34:58;;;;;;;7.05;2.88;;;6.40;99.90;;;;;;20919055;28;20052;-74
2021/04/24 02:45:05;;;;;;;9.07;3.25;;;6.20;99.90;;;;;;20918118;28;20033;-75
2021/04/24 02:55:07;;;;;;;10.45;3.65;;;6.10;99.90;;;;;;20917198;28;20032;-74
2021/04/24 03:05:11;;;;;;;9.48;3.83;;;5.90;99.90;;;;;;20916312;28;20099;-75
2021/04/24 03:15:12;;;;;;;9.05;3.83;;;5.80;99.90;;;;;;20915548;28;20033;-74
2021/04/24 03:25:14;;;;;;;10.30;3.00;;;5.40;99.90;;;;;;20914995;28;20024;-74
2021/04/24 03:35:15;;;;;;;10.65;3.55;;;4.90;99.90;;;;;;20913978;28;20029;-74
2021/04/24 03:45:19;;;;;;;7.03;3.10;;;4.90;99.90;;;;;;20926906;22;20127;-77
2021/04/24 03:55:27;;;;;;;6.18;3.47;;;4.90;99.90;;;;;;20895052;28;20475;-77
2021/04/24 04:05:39;;;;;;;8.23;3.33;;;4.80;99.90;;;;;;20859239;28;20037;-76
2021/04/24 04:15:41;;;;;;;9.10;3.85;;;4.80;99.90;;;;;;20830680;28;20091;-77
2021/04/24 04:25:43;;;;;;;7.05;3.28;;;4.70;99.90;;;;;;20848380;28;20033;-77
2021/04/24 04:35:45;;;;;;;9.73;3.10;;;4.30;99.90;;;;;;20867543;28;20029;-76
2021/04/24 04:45:46;;;;;;;13.52;6.22;;;4.20;99.90;;;;;;20849516;28;20041;-74
2021/04/24 04:55:47;;;;;;;8.10;3.97;;;4.20;99.90;;;;;;20866369;28;20561;-75
2021/04/24 05:05:48;;;;;;;7.03;3.20;;;4.50;99.90;;;;;;20864382;28;20037;-74
2021/04/24 05:15:49;;;;;;;8.63;3.35;;;4.00;99.90;;;;;;20869154;28;20395;-76
2021/04/24 05:25:50;;;;;;;12.33;2.83;;;4.50;99.90;;;;;;20823695;28;20068;-75
2021/04/24 05:35:51;;;;;;;11.13;4.10;;;5.10;99.90;;;;;;20825609;28;20479;-77
2021/04/24 05:45:52;;;;;;;11.77;4.40;;;5.30;99.90;;;;;;20826520;28;20033;-77
2021/04/24 05:55:53;;;;;;;8.57;4.13;;;5.50;99.90;;;;;;20825671;28;20438;-77
2021/04/24 06:05:54;;;;;;;12.80;4.30;;;5.80;99.90;;;;;;20827182;28;20491;-76
2021/04/24 06:15:55;;;;;;;11.43;4.93;;;6.40;99.90;;;;;;20840480;28;20099;-77
2021/04/24 06:25:56;;;;;;;;;;;7.30;99.90;;;;;;20849896;28;20033;-78
2021/04/24 06:35:57;;;;;;;12.07;4.70;;;8.20;99.90;;;;;;20874924;28;20420;-77
2021/04/24 06:45:58;;;;;;;14.63;4.70;;;9.10;99.90;;;;;;20845636;28;20116;-77
2021/04/24 06:55:59;;;;;;;10.38;4.78;;;9.80;99.90;;;;;;20859737;28;20028;-77
2021/04/24 07:05:59;;;;;;;16.58;5.38;;;10.10;99.90;;;;;;20917016;28;20033;-77
2021/04/24 07:16:03;;;;;;;10.95;4.97;;;10.50;99.90;;;;;;20915244;28;20040;-77
2021/04/24 07:26:04;;;;;;;11.63;5.43;;;11.10;99.90;;;;;;20915264;28;20033;-76
2021/04/24 07:36:05;;;;;;;10.30;5.13;;;11.90;99.90;;;;;;20917175;28;20036;-76
2021/04/24 07:46:06;;;;;;;13.65;5.30;;;12.10;99.90;;;;;;20912197;28;20491;-77
2021/04/24 07:56:07;;;;;;;19.27;5.05;;;13.50;99.90;;;;;;20912436;28;20112;-76
2021/04/24 08:06:08;;;;;;;11.05;5.15;;;14.00;99.90;;;;;;20911759;28;20086;-77
2021/04/24 08:16:09;;;;;;;14.40;5.75;;;14.10;99.00;;;;;;20910994;28;20039;-76
2021/04/24 08:26:10;;;;;;;13.57;6.07;;;15.30;96.20;;;;;;20910580;28;20020;-76
2021/04/24 08:36:11;;;;;;;11.18;6.28;;;15.20;95.00;;;;;;20909223;28;20025;-77
2021/04/24 08:46:16;;;;;;;16.53;6.23;;;15.60;94.20;;;;;;20908781;28;20399;-77
2021/04/24 08:56:18;;;;;;;15.30;6.38;;;16.60;94.40;;;;;;20907917;28;20036;-76
2021/04/24 09:06:23;;;;;;;15.65;6.78;;;16.90;90.70;;;;;;20882115;28;20045;-77
2021/04/24 09:16:26;;;;;;;12.52;6.07;;;17.90;87.10;;;;;;20846577;28;20029;-76
2021/04/24 09:26:27;;;;;;;15.18;6.47;;;19.20;85.10;;;;;;20873622;28;20029;-77
2021/04/24 09:36:37;;;;;;;12.93;6.93;;;19.40;82.80;;;;;;20850252;28;20037;-79
2021/04/24 09:46:51;;;;;;;13.13;6.50;;;19.10;79.60;;;;;;20836786;28;20060;-78
2021/04/24 09:57:15;;;;;;;15.13;7.20;;;19.40;78.50;;;;;;20839380;28;20048;-81
2021/04/24 10:07:36;;;;;;;12.48;6.03;;;20.30;78.80;;;;;;20870067;28;20025;-77
2021/04/24 10:17:37;;;;;;;12.95;6.45;;;19.20;82.80;;;;;;20887794;28;20040;-79
2021/04/24 10:27:38;;;;;;;11.90;5.83;;;20.60;75.30;;;;;;20957681;28;20032;-80
2021/04/24 10:37:39;;;;;;;11.30;6.37;;;21.80;74.40;;;;;;20959029;28;20048;-80
2021/04/24 10:47:52;;;;;;;14.43;6.17;;;21.60;71.20;;;;;;20940587;28;20036;-79
2021/04/24 10:58:03;;;;;;;10.35;5.97;;;22.30;71.40;;;;;;20915405;28;20349;-79
2021/04/24 11:18:12;;;;;;;9.98;5.80;;;22.00;72.50;;;;;;20838722;28;20148;-78
2021/04/24 11:28:13;;;;;;;13.48;6.32;;;22.70;66.20;;;;;;20827332;28;20025;-78
2021/04/24 11:38:14;;;;;;;11.95;5.72;;;23.00;62.50;;;;;;20811139;28;20037;-78
2021/04/24 11:48:16;;;;;;;10.37;5.03;;;22.00;68.30;;;;;;20884307;28;20040;-78
2021/04/24 11:58:19;;;;;;;10.63;5.22;;;22.40;65.90;;;;;;20873512;28;20464;-76
2021/04/24 12:08:21;;;;;;;9.82;5.00;;;22.50;63.80;;;;;;20861873;28;20037;-77
2021/04/24 12:18:27;;;;;;;;;;;22.20;62.00;;;;;;20860186;28;20498;-77
2021/04/24 12:28:28;;;;;;;9.27;4.55;;;21.90;65.10;;;;;;20819614;28;19919;-75
2021/04/24 12:38:30;;;;;;;6.53;3.10;;;22.40;63.20;;;;;;20907018;28;20068;-78
2021/04/24 12:48:37;;;;;;;11.60;3.78;;;22.40;58.20;;;;;;20845166;28;20482;-77
2021/04/24 12:58:43;;;;;;;7.95;3.58;;;22.00;59.60;;;;;;20817222;28;20062;-76
2021/04/24 13:09:06;;;;;;;5.50;2.28;;;21.90;58.00;;;;;;20887486;23;20045;-80
2021/04/24 13:19:07;;;;;;;17.25;3.50;;;22.10;59.40;;;;;;20928214;28;20033;-80
2021/04/24 13:29:20;;;;;;;8.23;2.90;;;22.20;59.00;;;;;;20906032;28;20029;-82
2021/04/24 13:39:21;;;;;;;7.00;3.10;;;22.60;64.20;;;;;;20889775;28;20060;-78
2021/04/24 13:49:25;;;;;;;10.15;3.55;;;22.40;62.60;;;;;;20906465;28;20032;-80
2021/04/24 13:59:25;;;;;;;4.63;2.72;;;22.50;59.00;;;;;;20904403;28;20025;-80
2021/04/24 14:09:26;;;;;;;4.73;2.90;;;22.60;60.40;;;;;;20908267;28;20047;-80
2021/04/24 14:19:28;;;;;;;11.93;5.03;;;23.10;57.90;;;;;;20888991;28;20036;-80
2021/04/24 14:29:29;;;;;;;;;;;23.40;59.20;;;;;;20897874;28;20029;-80
2021/04/24 14:39:30;;;;;;;7.60;3.40;;;24.10;57.20;;;;;;20910485;28;19944;-80
2021/04/24 14:49:31;;;;;;;7.72;2.35;;;23.10;59.90;;;;;;20908925;28;20051;-81
2021/04/24 14:59:32;;;;;;;7.73;2.63;;;23.40;60.40;;;;;;20897839;28;20052;-80
2021/04/24 15:09:33;;;;;;;4.80;2.77;;;23.60;58.90;;;;;;20913772;28;20295;-83
2021/04/24 15:19:35;;;;;;;12.63;4.17;;;23.10;61.60;;;;;;20888879;28;20082;-79
2021/04/24 15:29:35;;;;;;;7.45;2.80;;;23.00;59.80;;;;;;20900250;28;20083;-79
2021/04/24 15:39:43;;;;;;;5.77;2.73;;;22.80;61.80;;;;;;20923745;28;20045;-79
2021/04/24 15:49:44;;;;;;;7.85;2.70;;;22.70;60.20;;;;;;20939016;28;20036;-80
2021/04/24 15:59:45;;;;;;;4.80;2.27;;;22.50;62.10;;;;;;20916513;28;20041;-74
2021/04/24 16:09:47;;;;;;;4.53;2.17;;;22.30;58.80;;;;;;20889469;28;20049;-76
2021/04/24 16:19:48;;;;;;;4.97;2.27;;;22.00;62.20;;;;;;20886608;28;20040;-75
2021/04/24 16:29:48;;;;;;;4.70;2.50;;;21.40;59.30;;;;;;20887421;28;20036;-76
2021/04/24 16:39:52;;;;;;;8.43;2.43;;;21.20;59.60;;;;;;20874229;28;20131;-76
2021/04/24 16:49:53;;;;;;;6.22;2.20;;;21.00;61.20;;;;;;20866780;28;20039;-77
2021/04/24 16:59:54;;;;;;;6.97;4.27;;;20.90;61.80;;;;;;20884993;28;20029;-77
2021/04/24 17:09:55;;;;;;;13.97;5.10;;;20.80;64.70;;;;;;20888105;28;20036;-78
2021/04/24 17:19:55;;;;;;;115.03;64.67;;;20.70;65.40;;;;;;20885581;28;20128;-81
2021/04/24 17:29:56;;;;;;;7.50;3.30;;;20.40;63.30;;;;;;20830870;28;20049;-81
2021/04/24 17:39:57;;;;;;;8.63;3.13;;;20.10;63.80;;;;;;20813025;28;20087;-84
2021/04/24 17:49:58;;;;;;;11.23;7.63;;;19.90;63.90;;;;;;20888331;28;20808;-82
2021/04/24 17:59:59;;;;;;;10.13;4.73;;;19.50;62.70;;;;;;20907770;28;20033;-83
2021/04/24 18:10:00;;;;;;;13.20;3.95;;;18.90;65.80;;;;;;20935827;28;20035;-81
2021/04/24 18:20:03;;;;;;;5.35;2.33;;;17.90;69.50;;;;;;20911579;28;20085;-81
2021/04/24 18:30:14;;;;;;;4.72;2.30;;;17.40;71.20;;;;;;20911397;28;20041;-80
2021/04/24 18:40:17;;;;;;;6.22;2.70;;;16.80;73.10;;;;;;20908674;28;20028;-82
2021/04/24 18:50:19;;;;;;;4.50;2.60;;;16.10;75.80;;;;;;20909839;28;20039;-81
2021/04/24 19:00:23;;;;;;;8.30;3.35;;;15.90;78.50;;;;;;20901445;28;20029;-79
2021/04/24 19:10:39;;;;;;;12.50;3.42;;;15.20;81.90;;;;;;20913542;22;20274;-77
2021/04/24 19:20:41;;;;;;;6.82;2.75;;;14.40;84.90;;;;;;20892275;28;20115;-78
2021/04/24 19:30:43;;;;;;;;;;;13.60;88.20;;;;;;20892351;28;20028;-77
2021/04/24 19:40:44;;;;;;;6.90;3.30;;;13.70;87.80;;;;;;20893105;28;19920;-77
2021/04/24 19:50:44;;;;;;;6.88;3.50;;;13.20;90.70;;;;;;20880641;28;20074;-77
2021/04/24 20:00:47;;;;;;;7.95;3.28;;;12.20;92.50;;;;;;20891267;28;20033;-77
2021/04/24 20:10:49;;;;;;;6.88;3.38;;;12.20;93.10;;;;;;20893431;28;20075;-78
2021/04/24 20:20:50;;;;;;;;;;;11.80;94.40;;;;;;20875385;28;20508;-77
2021/04/24 20:30:51;;;;;;;8.73;4.38;;;11.90;95.20;;;;;;20874087;28;19967;-78
2021/04/24 20:40:54;;;;;;;5.60;3.28;;;12.20;96.50;;;;;;20889236;28;20039;-77
2021/04/24 20:50:56;;;;;;;10.15;3.47;;;11.40;98.20;;;;;;20790090;28;20419;-76
2021/04/24 21:00:57;;;;;;;4.32;2.55;;;12.40;95.40;;;;;;20789414;28;20033;-78
2021/04/24 21:10:58;;;;;;;10.77;3.65;;;12.30;96.00;;;;;;20806665;28;20033;-78
2021/04/24 21:20:59;;;;;;;8.53;2.87;;;11.70;98.50;;;;;;20806800;28;20700;-76
2021/04/24 21:31:00;;;;;;;5.63;2.85;;;11.80;98.20;;;;;;20805356;28;20036;-77
2021/04/24 21:41:00;;;;;;;5.40;2.90;;;11.20;99.90;;;;;;20871078;28;20036;-78
2021/04/24 21:51:02;;;;;;;6.60;3.10;;;10.80;99.90;;;;;;20903222;28;20056;-77
2021/04/24 22:01:03;;;;;;;10.97;4.20;;;10.80;99.90;;;;;;20883013;28;20116;-77
2021/04/24 22:11:04;;;;;;;11.07;3.88;;;10.50;99.90;;;;;;20899118;28;20048;-77
2021/04/24 22:21:05;;;;;;;7.18;3.90;;;10.40;99.90;;;;;;20893925;28;20518;-77
2021/04/24 22:31:06;;;;;;;12.67;4.57;;;9.90;99.90;;;;;;20878600;28;20079;-77
2021/04/24 22:41:07;;;;;;;9.27;4.30;;;10.10;99.90;;;;;;20908354;28;20581;-78
2021/04/24 22:51:08;;;;;;;8.02;4.07;;;9.90;99.90;;;;;;20904717;28;20727;-77
2021/04/24 23:01:09;;;;;;;11.23;3.87;;;9.60;99.90;;;;;;20896461;28;20112;-77
2021/04/24 23:11:11;;;;;;;6.53;3.92;;;9.50;99.90;;;;;;20885838;28;20501;-76
2021/04/24 23:21:12;;;;;;;8.93;4.78;;;9.30;99.90;;;;;;20885553;28;20120;-77
2021/04/24 23:31:12;;;;;;;8.53;3.67;;;9.30;99.90;;;;;;20894954;28;20667;-78
2021/04/24 23:41:13;;;;;;;9.13;4.37;;;9.20;99.90;;;;;;20824696;28;20408;-77
2021/04/24 23:51:14;;;;;;;10.10;4.37;;;8.80;99.90;;;;;;20888826;28;20119;-77
